»·PEaware :: QXE205 KSUN-KBZN

QXE205 :: KSUN-KBZN

FLIGHT INFORMATION

Flight Status: Arrived
Operator:
Horizon Air
More flights by this operator :: More flights under this callsign
Pilot: Chris S. (2433)
Aircraft: DEHAVILLAND DASH 8 400
(DH8D)
More flights by this aircraft type
Origin: KSUN Friedman Meml
United States
Destination: KBZN Gallatin
United States
More flights between these airports :: More routes between these airports
Route: +AUREL3 REAPS DLN BZN
File this flight plan on PilotEdge
Remarks:
Altitude:
(Current/Filed)
21,000ft
Speed:
(Current/Filed)
350kts
Departed: 02-Dec-19 04:19 PM
Arrived: 02-Dec-19 05:06 PM
Distance/Time
Traveled:
191nm/0:47
Distance/Time
To Go:
Arrived

Flight Plot

Page will automatically refresh every two minutes.

Flight plan parsing failed; only flown route is shown


Map Options




Map Legend


Flown Route
Filed Route
Departure Airport
Arrival Airport
Navaid (VOR, NDB)
Fix

Horizontal Profiles

Position Reports

Time Latitude Longitude Heading Altitude Ground
Speed
02-Dec-19 15:59 43.507276 -114.301102 160 5319ft 0kts
02-Dec-19 16:00 43.507276 -114.301102 160 5319ft 0kts
02-Dec-19 16:01 43.507276 -114.301102 160 5319ft 0kts
02-Dec-19 16:03 43.507276 -114.301102 160 5319ft 0kts
02-Dec-19 16:04 43.507276 -114.301102 160 5319ft 0kts
02-Dec-19 16:05 43.507276 -114.301102 160 5319ft 0kts
02-Dec-19 16:06 43.507276 -114.301102 160 5319ft 0kts
02-Dec-19 16:07 43.507276 -114.301102 160 5319ft 0kts
02-Dec-19 16:08 43.507276 -114.301102 160 5319ft 0kts
02-Dec-19 16:09 43.507276 -114.301102 160 5319ft 0kts
02-Dec-19 16:10 43.507276 -114.301102 160 5319ft 0kts
02-Dec-19 16:11 43.507276 -114.301102 160 5319ft 0kts
02-Dec-19 16:12 43.507419 -114.301176 137 5319ft 2kts
02-Dec-19 16:13 43.507437 -114.301520 60 5319ft 0kts
02-Dec-19 16:14 43.507437 -114.301520 60 5319ft 0kts
02-Dec-19 16:15 43.507558 -114.301221 61 5319ft 6kts
02-Dec-19 16:16 43.509994 -114.303094 324 5319ft 13kts
02-Dec-19 16:17 43.511452 -114.304388 357 5319ft 0kts
02-Dec-19 16:18 43.511619 -114.304335 22 5319ft 6kts
02-Dec-19 16:19 43.501832 -114.293613 142 5331ft 136kts
02-Dec-19 16:20 43.465917 -114.260503 163 7496ft 180kts
02-Dec-19 16:20 43.421253 -114.245972 169 9803ft 201kts
02-Dec-19 16:22 43.353190 -114.224113 176 12813ft 225kts
02-Dec-19 16:23 43.328954 -114.152668 55 15008ft 239kts
02-Dec-19 16:23 43.372436 -114.108607 22 16644ft 236kts
02-Dec-19 16:25 43.440408 -114.053815 19 18716ft 245kts
02-Dec-19 16:25 43.489906 -114.013525 20 20023ft 252kts
02-Dec-19 16:26 43.552747 -113.962563 20 21118ft 273kts
02-Dec-19 16:27 43.623424 -113.906189 21 21254ft 314kts
02-Dec-19 16:28 43.701900 -113.843235 22 21252ft 340kts
02-Dec-19 16:29 43.785892 -113.775262 22 21246ft 355kts
02-Dec-19 16:30 43.872344 -113.704837 23 21242ft 363kts
02-Dec-19 16:31 43.960057 -113.633036 23 21237ft 366kts
02-Dec-19 16:32 44.048235 -113.560606 23 21232ft 368kts
02-Dec-19 16:33 44.136472 -113.487799 23 21227ft 368kts
02-Dec-19 16:34 44.224514 -113.414871 23 21223ft 368kts
02-Dec-19 16:35 44.312287 -113.341996 23 21219ft 368kts
02-Dec-19 16:36 44.399561 -113.269145 23 21213ft 367kts
02-Dec-19 16:37 44.487634 -113.195522 23 21204ft 367kts
02-Dec-19 16:38 44.575069 -113.122028 23 21198ft 367kts
02-Dec-19 16:39 44.662357 -113.048425 24 21191ft 366kts
02-Dec-19 16:40 44.749451 -112.974776 24 21184ft 364kts
02-Dec-19 16:41 44.835543 -112.901570 24 21175ft 363kts
02-Dec-19 16:42 44.922086 -112.827928 24 21164ft 363kts
02-Dec-19 16:43 45.008744 -112.753697 25 20997ft 361kts
02-Dec-19 16:44 45.093386 -112.681089 24 19321ft 349kts
02-Dec-19 16:45 45.175031 -112.610812 25 17595ft 343kts
02-Dec-19 16:46 45.251029 -112.530968 55 15959ft 353kts
02-Dec-19 16:47 45.277347 -112.396694 72 15010ft 350kts
02-Dec-19 16:48 45.299770 -112.262554 72 14310ft 348kts
02-Dec-19 16:49 45.322096 -112.128384 72 13611ft 348kts
02-Dec-19 16:50 45.344290 -111.993569 72 12907ft 348kts
02-Dec-19 16:51 45.366390 -111.858680 72 12209ft 347kts
02-Dec-19 16:52 45.387995 -111.725565 72 12042ft 341kts
02-Dec-19 16:53 45.409210 -111.594440 72 12038ft 338kts
02-Dec-19 16:54 45.430089 -111.464068 73 12038ft 336kts
02-Dec-19 16:55 45.468896 -111.359334 26 12029ft 306kts
02-Dec-19 16:56 45.538375 -111.311829 15 11203ft 268kts
02-Dec-19 16:57 45.604417 -111.273519 5 9864ft 244kts
02-Dec-19 16:58 45.664034 -111.288703 338 9155ft 204kts
02-Dec-19 16:59 45.717768 -111.313893 336 8693ft 206kts
02-Dec-19 17:00 45.771451 -111.340191 337 8136ft 213kts
02-Dec-19 17:01 45.827073 -111.331237 38 7427ft 217kts
02-Dec-19 17:02 45.843323 -111.257068 106 5906ft 185kts
02-Dec-19 17:03 45.816064 -111.205158 139 5225ft 155kts
02-Dec-19 17:04 45.789320 -111.168066 136 4526ft 115kts
02-Dec-19 17:05 45.779551 -111.155073 190 4479ft 7kts
02-Dec-19 17:06 45.778427 -111.158869 313 4479ft 9kts
02-Dec-19 17:07 45.778228 -111.159775 247 4478ft 0kts
02-Dec-19 17:08 45.778228 -111.159775 247 4478ft 0kts
02-Dec-19 17:09 45.778228 -111.159775 247 4478ft 0kts
02-Dec-19 17:10 45.778228 -111.159775 247 4478ft 0kts
02-Dec-19 17:11 45.778228 -111.159775 247 4478ft 0kts

Navigation Log

Ident Type
Flight plan parsing failed, navigation log unavailable